createdAt,value
2018-05-01T00:00:02.590Z,99.90
2018-05-01T00:02:30.460Z,99.90
2018-05-01T00:04:59.142Z,99.90
2018-05-01T00:07:27.798Z,99.90
2018-05-01T00:09:56.771Z,99.90
2018-05-01T00:12:26.458Z,99.90
2018-05-01T00:14:54.345Z,99.90
2018-05-01T00:17:23.361Z,99.90
2018-05-01T00:19:51.492Z,99.90
2018-05-01T00:22:19.254Z,99.90
2018-05-01T00:24:47.983Z,99.90
2018-05-01T00:27:18.220Z,99.90
2018-05-01T00:29:47.118Z,99.90
2018-05-01T00:32:15.005Z,99.90
2018-05-01T00:34:43.734Z,99.90
2018-05-01T00:37:12.585Z,99.90
2018-05-01T00:39:40.555Z,99.90
2018-05-01T00:42:09.613Z,99.90
2018-05-01T00:44:38.800Z,99.90
2018-05-01T00:47:08.776Z,99.90
2018-05-01T00:49:36.836Z,99.90
2018-05-01T00:52:04.570Z,99.90
2018-05-01T00:54:32.200Z,99.40
2018-05-01T00:56:59.900Z,98.20
2018-05-01T00:59:27.724Z,97.00
2018-05-01T01:01:56.261Z,96.70
2018-05-01T01:04:26.593Z,96.60
2018-05-01T01:06:55.045Z,97.20
2018-05-01T01:09:23.048Z,97.20
2018-05-01T01:11:52.833Z,97.80
2018-05-01T01:14:25.113Z,98.60
2018-05-01T01:16:53.972Z,98.80
2018-05-01T01:19:22.898Z,99.90
2018-05-01T01:21:50.983Z,99.90
2018-05-01T01:24:21.877Z,99.90
2018-05-01T01:26:50.570Z,99.90
2018-05-01T01:29:19.589Z,99.90
2018-05-01T01:31:49.006Z,99.90
2018-05-01T01:34:26.452Z,99.90
2018-05-01T01:36:55.142Z,99.90
2018-05-01T01:39:23.180Z,99.90
2018-05-01T01:41:51.659Z,99.90
2018-05-01T01:44:21.621Z,99.90
2018-05-01T01:46:50.227Z,99.90
2018-05-01T01:49:20.138Z,99.90
2018-05-01T01:52:12.230Z,99.90
2018-05-01T01:54:40.232Z,99.90
2018-05-01T01:57:11.379Z,99.90
2018-05-01T01:59:39.380Z,99.90
2018-05-01T02:02:09.481Z,99.90
2018-05-01T02:04:41.429Z,99.90
2018-05-01T02:07:10.935Z,99.90
2018-05-01T02:09:38.539Z,99.90
2018-05-01T02:12:10.365Z,99.90
2018-05-01T02:14:39.505Z,99.90
2018-05-01T02:17:12.155Z,99.90
2018-05-01T02:19:49.926Z,99.90
2018-05-01T02:22:18.644Z,99.90
2018-05-01T02:24:48.418Z,99.90
2018-05-01T02:27:19.295Z,99.90
2018-05-01T02:29:48.779Z,99.90
2018-05-01T02:32:16.398Z,99.90
2018-05-01T02:34:49.664Z,99.90
2018-05-01T02:39:53.346Z,99.90
2018-05-01T02:42:23.791Z,99.90
2018-05-01T02:47:33.554Z,99.90
2018-05-01T02:50:03.106Z,99.90
2018-05-01T02:52:30.433Z,99.90
2018-05-01T02:54:59.160Z,99.90
2018-05-01T02:57:29.258Z,99.90
2018-05-01T02:59:59.488Z,99.90
2018-05-01T03:02:29.459Z,99.90
2018-05-01T03:05:05.850Z,99.90
2018-05-01T03:07:36.060Z,99.90
2018-05-01T03:10:04.811Z,99.90
2018-05-01T03:12:34.681Z,99.90
2018-05-01T03:17:41.841Z,99.90
2018-05-01T03:22:48.271Z,99.90
2018-05-01T03:30:48.370Z,99.90
2018-05-01T03:33:21.348Z,99.90
2018-05-01T03:38:41.318Z,99.90
2018-05-01T03:41:13.767Z,99.90
2018-05-01T03:43:43.842Z,99.90
2018-05-01T03:51:34.905Z,99.90
2018-05-01T03:59:43.330Z,99.90
2018-05-01T04:02:13.407Z,99.90
2018-05-01T04:04:43.963Z,99.90
2018-05-01T04:07:18.329Z,99.90
2018-05-01T04:12:21.451Z,99.90
2018-05-01T04:14:52.743Z,99.90
2018-05-01T04:17:23.702Z,99.90
2018-05-01T04:19:51.960Z,99.90
2018-05-01T04:27:44.963Z,99.90
2018-05-01T04:30:14.082Z,99.90
2018-05-01T04:32:42.478Z,99.90
2018-05-01T04:35:12.337Z,99.90
2018-05-01T04:37:42.652Z,99.90
2018-05-01T04:40:12.079Z,99.90
2018-05-01T04:45:32.494Z,99.90
2018-05-01T04:48:00.770Z,99.90
2018-05-01T04:50:30.875Z,99.90
2018-05-01T04:53:03.176Z,99.90
2018-05-01T04:55:32.401Z,99.90
2018-05-01T04:58:02.231Z,99.90
2018-05-01T05:00:30.698Z,99.90
2018-05-01T05:02:58.357Z,99.90
2018-05-01T05:05:27.663Z,99.90
2018-05-01T05:08:00.532Z,99.90
2018-05-01T05:10:51.476Z,99.90
2018-05-01T05:13:27.066Z,99.90
2018-05-01T05:16:00.371Z,99.90
2018-05-01T05:18:30.924Z,99.90
2018-05-01T05:21:00.545Z,99.90
2018-05-01T05:23:29.427Z,99.90
2018-05-01T05:29:01.704Z,99.90
2018-05-01T05:31:53.992Z,99.90
2018-05-01T05:34:24.046Z,99.90
2018-05-01T05:36:55.240Z,99.90
2018-05-01T05:39:24.270Z,99.90
2018-05-01T05:44:23.853Z,99.90
2018-05-01T05:46:54.178Z,99.90
2018-05-01T05:51:57.497Z,99.90
2018-05-01T05:54:25.999Z,99.90
2018-05-01T05:56:53.644Z,99.90
2018-05-01T05:59:22.402Z,99.90
2018-05-01T06:01:49.835Z,99.90
2018-05-01T06:04:20.432Z,99.90
2018-05-01T06:06:49.740Z,99.90
2018-05-01T06:09:39.547Z,99.90
2018-05-01T06:12:10.910Z,99.90
2018-05-01T06:14:43.783Z,99.90
2018-05-01T06:17:11.661Z,99.90
2018-05-01T06:22:15.911Z,99.90
2018-05-01T06:25:04.701Z,99.90
2018-05-01T06:27:36.124Z,99.90
2018-05-01T06:30:04.169Z,99.90
2018-05-01T06:32:33.825Z,99.90
2018-05-01T06:35:02.297Z,99.90
2018-05-01T06:37:39.960Z,99.90
2018-05-01T06:40:08.734Z,99.90
2018-05-01T06:42:36.026Z,99.90
2018-05-01T06:45:05.082Z,99.90
2018-05-01T06:47:35.874Z,99.90
2018-05-01T06:53:02.307Z,99.90
2018-05-01T06:55:31.600Z,99.90
2018-05-01T06:58:01.389Z,99.90
2018-05-01T07:00:28.847Z,99.90
2018-05-01T07:02:57.255Z,99.90
2018-05-01T07:05:30.375Z,99.90
2018-05-01T07:07:59.452Z,99.90
2018-05-01T07:10:28.410Z,99.90
2018-05-01T07:20:57.927Z,99.90
2018-05-01T07:23:31.198Z,99.90
2018-05-01T07:26:11.781Z,99.90
2018-05-01T07:31:15.571Z,99.90
2018-05-01T07:39:32.039Z,98.60
2018-05-01T07:42:01.287Z,98.00
2018-05-01T07:44:30.674Z,97.40
2018-05-01T07:47:00.874Z,96.80
2018-05-01T07:49:29.997Z,97.00
2018-05-01T07:51:58.941Z,97.00
2018-05-01T07:54:26.967Z,96.60
2018-05-01T07:56:58.529Z,96.40
2018-05-01T07:59:27.606Z,95.40
2018-05-01T08:01:55.200Z,94.90
2018-05-01T08:04:27.086Z,94.30
2018-05-01T08:06:57.828Z,93.60
2018-05-01T08:09:25.636Z,91.40
2018-05-01T08:11:53.794Z,91.00
2018-05-01T08:14:22.207Z,91.00
2018-05-01T08:16:50.227Z,91.30
2018-05-01T08:19:21.085Z,91.70
2018-05-01T08:21:52.900Z,91.90
2018-05-01T08:29:47.067Z,89.20
2018-05-01T08:35:10.729Z,88.60
2018-05-01T08:37:56.875Z,89.20
2018-05-01T08:40:26.362Z,90.60
2018-05-01T08:42:59.070Z,90.50
2018-05-01T08:45:32.462Z,88.70
2018-05-01T08:52:16.395Z,86.30
2018-05-01T08:54:43.510Z,85.00
2018-05-01T08:57:10.655Z,83.70
2018-05-01T08:59:37.701Z,83.60
2018-05-01T09:02:05.545Z,82.80
2018-05-01T09:04:32.623Z,82.80
2018-05-01T09:06:59.708Z,81.10
2018-05-01T09:09:26.766Z,82.00
2018-05-01T09:11:53.845Z,82.30
2018-05-01T09:14:20.926Z,82.20
2018-05-01T09:16:47.998Z,80.10
2018-05-01T09:19:15.090Z,78.90
2018-05-01T09:21:43.402Z,79.20
2018-05-01T09:24:10.489Z,78.90
2018-05-01T09:26:37.588Z,76.70
2018-05-01T09:29:05.417Z,76.20
2018-05-01T09:31:32.500Z,76.20
2018-05-01T09:34:00.323Z,76.40
2018-05-01T09:36:27.409Z,76.40
2018-05-01T09:38:55.680Z,75.40
2018-05-01T09:41:22.763Z,75.50
2018-05-01T09:43:50.587Z,74.20
2018-05-01T09:46:17.677Z,71.00
2018-05-01T09:48:44.729Z,69.40
2018-05-01T09:51:11.803Z,70.60
2018-05-01T09:53:39.336Z,66.20
2018-05-01T09:56:06.892Z,62.10
2018-05-01T09:58:34.730Z,59.60
2018-05-01T10:01:02.296Z,57.80
2018-05-01T10:03:29.846Z,58.90
2018-05-01T10:05:57.424Z,60.00
2018-05-01T10:08:25.816Z,59.30
2018-05-01T10:10:54.143Z,58.40
2018-05-01T10:13:21.678Z,58.40
2018-05-01T10:15:49.335Z,59.00
2018-05-01T10:18:16.900Z,58.20
2018-05-01T10:20:44.441Z,58.20
2018-05-01T10:23:12.792Z,56.30
2018-05-01T10:25:40.371Z,56.10
2018-05-01T10:28:08.678Z,53.60
2018-05-01T10:30:36.223Z,52.90
2018-05-01T10:33:04.636Z,53.20
2018-05-01T10:35:32.338Z,53.20
2018-05-01T10:37:59.945Z,51.90
2018-05-01T10:40:27.503Z,52.10
2018-05-01T10:42:55.085Z,52.80
2018-05-01T10:45:22.662Z,53.10
2018-05-01T10:47:50.211Z,53.80
2018-05-01T10:50:18.544Z,53.90
2018-05-01T10:52:46.896Z,53.80
2018-05-01T10:55:15.429Z,53.70
2018-05-01T10:57:42.970Z,53.50
2018-05-01T11:00:11.314Z,50.50
2018-05-01T11:02:38.868Z,50.50
2018-05-01T11:05:07.196Z,48.80
2018-05-01T11:07:36.684Z,50.50
2018-05-01T11:10:05.378Z,51.50
2018-05-01T11:12:34.011Z,50.80
2018-05-01T11:15:01.595Z,50.80
2018-05-01T11:17:29.351Z,50.80
2018-05-01T11:19:56.812Z,49.90
2018-05-01T11:22:24.405Z,49.40
2018-05-01T11:24:52.716Z,48.00
2018-05-01T11:27:20.279Z,48.00
2018-05-01T11:29:47.817Z,48.20
2018-05-01T11:32:16.191Z,46.30
2018-05-01T11:34:44.532Z,47.30
2018-05-01T11:37:12.115Z,47.20
2018-05-01T11:39:39.659Z,47.00
2018-05-01T11:42:07.291Z,47.00
2018-05-01T11:44:34.874Z,47.90
2018-05-01T11:47:02.652Z,48.30
2018-05-01T11:49:30.210Z,48.90
2018-05-01T11:51:57.761Z,49.60
2018-05-01T11:54:25.305Z,49.00
2018-05-01T11:56:52.903Z,48.80
2018-05-01T11:59:20.441Z,48.50
2018-05-01T12:01:48.067Z,48.20
2018-05-01T12:04:15.708Z,48.20
2018-05-01T12:06:44.948Z,48.80
2018-05-01T12:09:12.489Z,48.80
2018-05-01T12:11:40.790Z,49.40
2018-05-01T12:14:08.368Z,49.40
2018-05-01T12:16:35.916Z,50.30
2018-05-01T12:19:03.595Z,50.30
2018-05-01T12:21:31.926Z,50.90
2018-05-01T12:24:00.234Z,51.20
2018-05-01T12:26:27.829Z,51.20
2018-05-01T12:28:55.339Z,51.50
2018-05-01T12:31:22.884Z,51.50
2018-05-01T12:33:51.177Z,49.80
2018-05-01T12:36:18.737Z,49.80
2018-05-01T12:38:46.303Z,49.60
2018-05-01T12:41:13.994Z,49.60
2018-05-01T12:43:41.542Z,49.90
2018-05-01T12:46:09.088Z,50.10
2018-05-01T12:48:36.633Z,49.90
2018-05-01T12:51:04.962Z,49.10
2018-05-01T12:53:32.504Z,49.10
2018-05-01T12:56:00.029Z,49.00
2018-05-01T12:58:28.312Z,47.60
2018-05-01T13:00:56.592Z,48.20
2018-05-01T13:03:24.896Z,48.40
2018-05-01T13:05:52.428Z,48.40
2018-05-01T13:08:20.758Z,48.40
2018-05-01T13:10:48.321Z,48.30
2018-05-01T13:13:15.908Z,48.60
2018-05-01T13:15:43.478Z,48.70
2018-05-01T15:40:29.700Z,46.50
2018-05-01T15:42:59.087Z,46.50
2018-05-01T15:45:28.296Z,47.20
2018-05-01T15:47:55.990Z,47.60
2018-05-01T15:50:24.156Z,47.50
2018-05-01T15:52:51.779Z,48.10
2018-05-01T15:55:19.433Z,48.20
2018-05-01T15:57:47.030Z,48.80
2018-05-01T16:00:14.685Z,49.10
2018-05-01T16:02:42.271Z,49.20
2018-05-01T16:05:12.173Z,49.70
2018-05-01T16:07:40.422Z,50.20
2018-05-01T16:10:13.499Z,50.30
2018-05-01T16:12:41.387Z,50.40
2018-05-01T16:15:09.159Z,50.20
2018-05-01T16:17:39.087Z,50.30
2018-05-01T16:20:07.078Z,50.40
2018-05-01T16:22:51.821Z,50.40
2018-05-01T16:25:20.158Z,51.10
2018-05-01T16:27:47.838Z,51.10
2018-05-01T16:30:16.989Z,51.30
2018-05-01T16:32:44.188Z,51.20
2018-05-01T16:35:11.995Z,51.30
2018-05-01T16:37:44.073Z,51.50
2018-05-01T16:40:15.418Z,51.60
2018-05-01T16:42:44.588Z,51.70
2018-05-01T16:45:16.478Z,51.60
2018-05-01T16:47:44.466Z,51.50
2018-05-01T16:50:12.131Z,51.50
2018-05-01T16:52:39.745Z,51.30
2018-05-01T16:55:10.067Z,51.40
2018-05-01T16:57:40.275Z,51.60
2018-05-01T17:00:11.943Z,51.60
2018-05-01T17:02:39.489Z,51.70
2018-05-01T17:05:07.208Z,51.80
2018-05-01T17:07:36.449Z,51.60
2018-05-01T17:10:04.061Z,51.90
2018-05-01T17:12:34.389Z,52.20
2018-05-01T17:15:02.693Z,52.20
2018-05-01T17:17:31.160Z,52.40
2018-05-01T17:19:58.764Z,52.70
2018-05-01T17:22:27.515Z,52.80
2018-05-01T17:24:55.511Z,52.70
2018-05-01T17:27:23.100Z,52.70
2018-05-01T17:29:50.709Z,53.00
2018-05-01T17:32:18.294Z,53.10
2018-05-01T17:37:39.875Z,53.60
2018-05-01T17:40:07.517Z,53.60
2018-05-01T17:42:35.033Z,53.90
2018-05-01T17:45:02.860Z,54.10
2018-05-01T17:47:30.811Z,54.10
2018-05-01T17:49:58.775Z,55.00
2018-05-01T17:52:35.198Z,54.40
2018-05-01T17:55:06.624Z,54.60
2018-05-01T17:57:36.887Z,54.80
2018-05-01T18:00:07.645Z,55.10
2018-05-01T18:02:39.325Z,55.00
2018-05-01T18:05:08.052Z,55.40
2018-05-01T18:07:36.785Z,55.40
2018-05-01T18:12:52.593Z,55.40
2018-05-01T18:15:21.241Z,56.00
2018-05-01T18:17:48.869Z,55.70
2018-05-01T18:20:17.759Z,55.60
2018-05-01T18:22:45.747Z,56.00
2018-05-01T18:25:17.092Z,56.20
2018-05-01T18:30:33.537Z,56.50
2018-05-01T18:35:34.822Z,56.80
2018-05-01T18:38:02.940Z,57.10
2018-05-01T18:40:30.846Z,57.20
2018-05-01T18:43:02.089Z,57.10
2018-05-01T18:45:32.657Z,57.30
2018-05-01T18:53:26.721Z,57.80
2018-05-01T18:55:54.501Z,58.40
2018-05-01T18:58:23.670Z,58.50
2018-05-01T19:00:55.503Z,58.80
2018-05-01T19:03:23.453Z,58.90
2018-05-01T19:05:53.992Z,58.80
2018-05-01T19:08:23.249Z,59.10
2018-05-01T19:10:51.180Z,59.60
2018-05-01T19:13:24.364Z,59.90
2018-05-01T19:15:52.400Z,60.40
2018-05-01T19:18:23.982Z,59.90
2018-05-01T19:20:56.053Z,61.40
2018-05-01T19:23:23.982Z,61.40
2018-05-01T19:25:51.930Z,62.50
2018-05-01T19:28:19.909Z,61.70
2018-05-01T19:30:48.539Z,63.20
2018-05-01T19:33:17.359Z,62.80
2018-05-01T19:35:45.189Z,63.80
2018-05-01T19:38:13.017Z,63.30
2018-05-01T19:40:40.756Z,63.80
2018-05-01T19:43:08.448Z,64.20
2018-05-01T19:45:36.120Z,64.30
2018-05-01T19:50:57.322Z,65.60
2018-05-01T19:53:25.325Z,66.60
2018-05-01T19:55:53.149Z,68.70
2018-05-01T19:58:21.234Z,68.90
2018-05-01T20:00:50.760Z,70.20
2018-05-01T20:03:18.690Z,71.50
2018-05-01T20:05:46.567Z,73.60
2018-05-01T20:08:14.561Z,74.50
2018-05-01T20:10:42.515Z,75.50
2018-05-01T20:13:10.319Z,78.00
2018-05-01T20:15:38.241Z,78.70
2018-05-01T20:18:06.262Z,78.90
2018-05-01T20:20:34.090Z,79.90
2018-05-01T20:23:01.993Z,81.10
2018-05-01T20:25:29.801Z,82.00
2018-05-01T20:27:57.735Z,84.10
2018-05-01T20:30:44.328Z,85.30
2018-05-01T20:33:12.017Z,85.50
2018-05-01T20:35:39.613Z,86.80
2018-05-01T20:38:07.228Z,85.90
2018-05-01T20:40:34.883Z,85.80
2018-05-01T20:43:02.516Z,86.60
2018-05-01T20:45:30.173Z,87.10
2018-05-01T20:47:58.834Z,91.10
2018-05-01T20:50:26.460Z,90.20
2018-05-01T20:53:01.229Z,90.30
2018-05-01T20:55:28.885Z,90.40
2018-05-01T20:57:57.057Z,90.50
2018-05-01T21:00:24.838Z,90.70
2018-05-01T21:02:55.917Z,91.00
2018-05-01T21:05:23.594Z,94.10
2018-05-01T21:07:51.288Z,94.20
2018-05-01T21:10:19.008Z,93.40
2018-05-01T21:12:47.244Z,93.20
2018-05-01T21:15:16.315Z,93.80
2018-05-01T21:17:44.899Z,94.10
2018-05-01T21:23:03.275Z,95.10
2018-05-01T21:25:31.731Z,96.30
2018-05-01T21:28:00.418Z,96.10
2018-05-01T21:30:28.015Z,95.50
2018-05-01T21:32:56.347Z,96.60
2018-05-01T21:35:24.880Z,96.70
2018-05-01T21:38:01.085Z,96.30
2018-05-01T21:40:29.237Z,96.20
2018-05-01T21:42:57.206Z,96.40
2018-05-01T21:45:27.280Z,96.60
2018-05-01T21:47:55.110Z,97.30
2018-05-01T21:50:24.700Z,97.20
2018-05-01T21:52:52.565Z,97.20
2018-05-01T21:55:20.588Z,97.30
2018-05-01T21:57:49.548Z,97.30
2018-05-01T22:00:18.293Z,98.10
2018-05-01T22:02:46.965Z,98.20
2018-05-01T22:05:14.906Z,98.20
2018-05-01T22:07:43.585Z,98.30
2018-05-01T22:10:11.550Z,98.70
2018-05-01T22:12:39.425Z,98.40
2018-05-01T22:15:07.715Z,98.80
2018-05-01T22:17:36.745Z,99.90
2018-05-01T22:20:04.662Z,99.90
2018-05-01T22:22:33.450Z,99.90
2018-05-01T22:25:02.061Z,99.90
2018-05-01T22:27:30.011Z,99.90
2018-05-01T22:29:57.827Z,99.90
2018-05-01T22:32:25.887Z,99.90
2018-05-01T22:34:53.809Z,99.90
2018-05-01T22:37:21.617Z,99.90
2018-05-01T22:39:50.433Z,99.90
2018-05-01T22:42:18.295Z,99.90
2018-05-01T22:44:46.871Z,99.90
2018-05-01T22:47:14.694Z,99.90
2018-05-01T22:49:42.750Z,99.90
2018-05-01T22:52:11.017Z,99.90
2018-05-01T22:54:39.740Z,99.90
2018-05-01T22:57:07.675Z,99.90
2018-05-01T22:59:37.164Z,99.90
2018-05-01T23:02:05.839Z,99.90
2018-05-01T23:04:33.583Z,99.90
2018-05-01T23:07:02.292Z,99.90
2018-05-01T23:09:30.308Z,99.90
2018-05-01T23:11:58.160Z,99.90
2018-05-01T23:14:27.076Z,99.90
2018-05-01T23:16:56.506Z,99.90
2018-05-01T23:19:24.371Z,99.90
2018-05-01T23:21:52.457Z,99.90
2018-05-01T23:24:20.455Z,99.90
2018-05-01T23:26:50.810Z,99.90
2018-05-01T23:29:18.705Z,99.90
2018-05-01T23:31:47.320Z,99.90
2018-05-01T23:34:15.862Z,99.90
2018-05-01T23:36:43.853Z,99.90
2018-05-01T23:39:12.474Z,99.90
2018-05-01T23:41:41.145Z,99.90
2018-05-01T23:44:09.165Z,99.90
2018-05-01T23:46:37.077Z,99.90
2018-05-01T23:49:04.918Z,99.90
2018-05-01T23:51:33.320Z,99.90
2018-05-01T23:54:01.384Z,99.90
2018-05-01T23:56:29.374Z,99.90
2018-05-01T23:58:57.280Z,99.90
